Time;durP1;ratioP1;P1;durP2;ratioP2;P2;SDS_P1;SDS_P2;PMS_P1;PMS_P2;Temp;Humidity;BMP_temperature;BMP_pressure;BME280_temperature;BME280_humidity;BME280_pressure;Samples;Min_cycle;Max_cycle;Signal;HPM_P1;HPM_P2
2021/10/29 00:01:08;;;;;;;18.43;10.20;;;10.70;99.90;;;;;;5004870;28;20170;-83
2021/10/29 00:03:34;;;;;;;21.60;11.48;;;10.60;99.90;;;;;;4990674;28;20189;-83
2021/10/29 00:06:02;;;;;;;19.97;11.23;;;10.60;99.90;;;;;;4993970;28;20229;-83
2021/10/29 00:08:27;;;;;;;22.10;11.50;;;10.60;99.90;;;;;;5009808;28;20545;-84
2021/10/29 00:10:53;;;;;;;19.57;11.87;;;10.60;99.90;;;;;;4993948;28;20193;-85
2021/10/29 00:13:18;;;;;;;20.47;11.47;;;10.60;99.90;;;;;;5009636;28;20170;-83
2021/10/29 00:15:46;;;;;;;21.40;12.17;;;10.50;99.90;;;;;;4994985;28;20209;-83
2021/10/29 00:18:15;;;;;;;20.60;11.00;;;10.40;99.90;;;;;;5012007;28;20198;-85
2021/10/29 00:20:41;;;;;;;23.05;10.43;;;10.40;99.90;;;;;;5015304;28;20178;-83
2021/10/29 00:23:09;;;;;;;25.23;11.67;;;10.40;99.90;;;;;;5032520;28;20214;-85
2021/10/29 00:25:34;;;;;;;22.13;12.50;;;10.50;99.90;;;;;;5005102;28;20209;-84
2021/10/29 00:28:00;;;;;;;23.07;12.50;;;10.50;99.90;;;;;;5020785;28;20178;-83
2021/10/29 00:30:27;;;;;;;23.10;11.30;;;10.50;99.90;;;;;;5021454;28;20170;-83
2021/10/29 00:32:55;;;;;;;19.40;12.25;;;10.40;99.90;;;;;;4999142;28;20182;-82
2021/10/29 00:35:21;;;;;;;21.40;12.52;;;10.40;99.90;;;;;;5018122;28;20202;-85
2021/10/29 00:37:48;;;;;;;22.43;11.53;;;10.40;99.90;;;;;;4997725;28;20192;-84
2021/10/29 00:40:15;;;;;;;23.10;12.10;;;10.40;99.90;;;;;;4995417;28;20254;-85
2021/10/29 00:42:43;;;;;;;22.27;11.98;;;10.30;99.90;;;;;;5011519;28;20196;-83
2021/10/29 00:45:10;;;;;;;21.92;11.50;;;10.30;99.90;;;;;;5010797;28;20186;-84
2021/10/29 00:47:38;;;;;;;21.70;12.27;;;10.30;99.90;;;;;;5007968;28;20176;-84
2021/10/29 00:50:07;;;;;;;25.73;12.30;;;10.40;99.90;;;;;;5006896;28;20174;-85
2021/10/29 00:52:33;;;;;;;22.73;12.77;;;10.30;99.90;;;;;;5004814;28;20241;-85
2021/10/29 00:55:00;;;;;;;21.10;12.73;;;10.30;99.90;;;;;;5019469;28;20217;-83
2021/10/29 00:57:28;;;;;;;19.63;12.18;;;10.30;99.90;;;;;;5002705;28;20194;-84
2021/10/29 00:59:56;;;;;;;22.13;12.93;;;10.20;99.90;;;;;;4987169;28;20202;-83
2021/10/29 01:02:23;;;;;;;28.83;15.13;;;10.20;99.90;;;;;;4986671;28;20201;-84
2021/10/29 01:04:52;;;;;;;25.00;14.35;;;10.20;99.90;;;;;;5003258;28;20325;-85
2021/10/29 01:07:29;;;;;;;30.02;14.25;;;10.20;99.90;;;;;;5018769;28;20662;-84
2021/10/29 01:10:12;;;;;;;20.05;12.27;;;10.20;99.90;;;;;;5000765;28;20518;-84
2021/10/29 01:12:44;;;;;;;21.15;11.88;;;10.20;99.90;;;;;;5001636;28;20185;-84
2021/10/29 01:15:10;;;;;;;25.98;14.27;;;10.10;99.90;;;;;;5015053;28;20736;-84
2021/10/29 01:17:37;;;;;;;23.58;13.70;;;10.10;99.90;;;;;;5017660;28;20170;-84
2021/10/29 01:20:07;;;;;;;18.27;12.10;;;10.00;99.90;;;;;;5014881;28;20182;-83
2021/10/29 01:22:33;;;;;;;25.77;13.20;;;9.90;99.90;;;;;;4996648;28;20201;-84
2021/10/29 01:24:58;;;;;;;27.33;13.97;;;9.90;99.90;;;;;;5003639;28;20190;-84
2021/10/29 01:27:24;;;;;;;22.20;13.60;;;9.90;99.90;;;;;;4972098;28;21023;-85
2021/10/29 01:29:53;;;;;;;26.27;13.90;;;10.00;99.90;;;;;;4972262;28;20447;-84
2021/10/29 01:32:25;;;;;;;23.85;12.48;;;9.90;99.90;;;;;;4988868;28;20208;-85
2021/10/29 01:34:51;;;;;;;28.42;13.85;;;10.00;99.90;;;;;;5004470;28;20241;-86
2021/10/29 01:37:21;;;;;;;31.47;15.10;;;10.00;99.90;;;;;;4988959;28;20193;-84
2021/10/29 01:39:47;;;;;;;21.90;12.35;;;9.90;99.90;;;;;;5004967;28;20174;-86
2021/10/29 01:42:15;;;;;;;26.17;13.13;;;10.00;99.90;;;;;;4972278;28;20293;-85
2021/10/29 01:44:41;;;;;;;26.17;14.02;;;9.90;99.90;;;;;;4989559;28;20226;-84
2021/10/29 01:47:10;;;;;;;22.90;12.05;;;9.80;99.90;;;;;;4990621;28;20174;-85
2021/10/29 01:49:40;;;;;;;22.80;13.25;;;9.80;99.90;;;;;;4976324;28;20178;-84
2021/10/29 01:52:10;;;;;;;25.52;14.18;;;9.80;99.90;;;;;;5008054;28;20162;-85
2021/10/29 01:54:35;;;;;;;26.23;14.38;;;9.90;99.90;;;;;;5007997;28;20546;-84
2021/10/29 01:57:01;;;;;;;20.50;12.67;;;9.90;99.90;;;;;;5004987;28;20178;-83
2021/10/29 01:59:27;;;;;;;21.90;13.63;;;9.90;99.90;;;;;;4988838;28;20182;-84
2021/10/29 02:01:53;;;;;;;30.93;14.40;;;9.90;99.90;;;;;;4987617;28;20460;-84
2021/10/29 02:04:20;;;;;;;20.30;13.57;;;9.80;99.90;;;;;;5004216;28;20792;-85
2021/10/29 02:06:48;;;;;;;29.80;14.98;;;9.80;99.90;;;;;;5004824;28;20179;-85
2021/10/29 02:09:16;;;;;;;24.20;13.85;;;9.70;99.90;;;;;;4975673;28;20197;-86
2021/10/29 02:11:42;;;;;;;26.40;12.98;;;9.70;99.90;;;;;;5005984;28;20201;-84
2021/10/29 02:14:11;;;;;;;38.20;13.00;;;9.70;99.90;;;;;;5005609;28;20548;-83
2021/10/29 02:16:36;;;;;;;25.30;12.32;;;9.70;99.90;;;;;;5005184;28;20287;-83
2021/10/29 02:19:03;;;;;;;23.43;13.97;;;9.60;99.90;;;;;;5003856;28;20178;-85
2021/10/29 02:21:32;;;;;;;26.60;15.68;;;9.60;99.90;;;;;;4986947;28;20197;-84
2021/10/29 02:24:03;;;;;;;27.80;14.27;;;9.60;99.90;;;;;;5003542;28;20186;-84
2021/10/29 02:26:37;;;;;;;24.98;13.75;;;9.60;99.90;;;;;;4983771;28;20273;-85
2021/10/29 02:29:05;;;;;;;28.98;14.45;;;9.60;99.90;;;;;;4983586;28;20175;-83
2021/10/29 02:31:53;;;;;;;26.27;12.48;;;9.50;99.90;;;;;;5000475;28;20261;-83
2021/10/29 02:34:19;;;;;;;27.73;14.68;;;9.40;99.90;;;;;;5000084;28;20214;-84
2021/10/29 02:36:47;;;;;;;22.92;13.93;;;9.40;99.90;;;;;;4985276;28;20186;-85
2021/10/29 02:39:16;;;;;;;21.30;13.13;;;9.40;99.90;;;;;;4985556;28;20190;-85
2021/10/29 02:42:04;;;;;;;32.70;14.45;;;9.40;99.90;;;;;;5003508;28;20199;-85
2021/10/29 02:44:36;;;;;;;32.53;15.65;;;9.40;99.90;;;;;;5003283;28;20254;-84
2021/10/29 02:47:12;;;;;;;23.92;14.07;;;9.40;99.90;;;;;;5000606;28;20167;-84
2021/10/29 02:49:40;;;;;;;26.73;14.13;;;9.40;99.90;;;;;;5002037;28;20151;-86
2021/10/29 02:52:11;;;;;;;28.73;15.05;;;9.40;99.90;;;;;;5002724;28;20174;-84
2021/10/29 02:54:39;;;;;;;21.90;12.40;;;9.40;99.90;;;;;;5000539;28;20202;-84
2021/10/29 02:57:14;;;;;;;26.85;14.45;;;9.40;99.90;;;;;;5001378;28;20170;-85
2021/10/29 02:59:47;;;;;;;26.33;13.40;;;9.40;99.90;;;;;;5001954;28;20213;-85
2021/10/29 03:02:18;;;;;;;22.63;12.95;;;9.40;99.90;;;;;;5002367;28;20224;-85
2021/10/29 03:05:10;;;;;;;27.38;14.30;;;9.40;99.90;;;;;;5001833;28;20195;-84
2021/10/29 03:07:44;;;;;;;25.98;13.70;;;9.30;99.90;;;;;;4991761;28;20178;-86
2021/10/29 03:10:18;;;;;;;23.50;13.80;;;9.20;99.90;;;;;;4990718;28;20253;-83
2021/10/29 03:12:49;;;;;;;26.80;15.90;;;9.30;99.90;;;;;;4990088;28;20305;-84
2021/10/29 03:15:20;;;;;;;25.23;13.75;;;9.20;99.90;;;;;;4987669;28;20195;-84
2021/10/29 03:17:46;;;;;;;24.08;13.70;;;9.20;99.90;;;;;;4986354;28;20181;-84
2021/10/29 03:20:12;;;;;;;23.23;13.90;;;9.20;99.90;;;;;;4986756;28;20213;-85
2021/10/29 03:22:46;;;;;;;22.50;13.40;;;9.20;99.90;;;;;;5002803;28;20254;-85
2021/10/29 03:25:19;;;;;;;28.98;14.77;;;9.20;99.90;;;;;;4985920;28;20274;-85
2021/10/29 03:27:51;;;;;;;23.55;14.35;;;9.20;99.90;;;;;;5003218;28;20173;-85
2021/10/29 03:30:19;;;;;;;23.60;15.32;;;9.20;99.90;;;;;;5001271;28;20171;-83
2021/10/29 03:32:47;;;;;;;24.52;14.60;;;9.10;99.90;;;;;;5002008;28;20171;-85
2021/10/29 03:35:19;;;;;;;26.67;14.00;;;9.10;99.90;;;;;;5002007;28;20201;-83
2021/10/29 03:38:01;;;;;;;28.80;14.75;;;9.10;99.90;;;;;;5002337;28;20183;-85
2021/10/29 03:46:12;;;;;;;31.95;14.45;;;9.10;99.90;;;;;;4987298;28;20155;-85
2021/10/29 03:48:52;;;;;;;27.40;13.32;;;9.10;99.90;;;;;;5003165;28;20147;-84
2021/10/29 03:51:25;;;;;;;28.90;13.90;;;9.10;99.90;;;;;;5001711;28;20186;-84
2021/10/29 03:56:29;;;;;;;26.40;14.55;;;9.00;99.90;;;;;;5001809;28;20167;-85
2021/10/29 03:58:56;;;;;;;26.90;14.43;;;9.00;99.90;;;;;;5001355;28;20525;-85
2021/10/29 04:01:22;;;;;;;22.30;13.60;;;9.00;99.90;;;;;;4998713;28;20310;-83
2021/10/29 04:03:51;;;;;;;26.85;15.18;;;9.00;99.90;;;;;;4983397;28;20199;-84
2021/10/29 04:06:17;;;;;;;28.83;14.02;;;9.00;99.90;;;;;;4983179;28;20171;-84
2021/10/29 04:08:44;;;;;;;27.97;14.67;;;9.00;99.90;;;;;;4997992;28;20177;-85
2021/10/29 04:11:10;;;;;;;27.17;13.27;;;8.90;99.90;;;;;;4982414;28;20441;-87
2021/10/29 04:13:39;;;;;;;24.47;14.47;;;8.90;99.90;;;;;;5003410;28;20218;-83
2021/10/29 04:16:09;;;;;;;27.83;16.17;;;8.90;99.90;;;;;;5009859;28;20163;-85
2021/10/29 04:18:37;;;;;;;24.38;15.05;;;8.90;99.90;;;;;;5002152;28;20174;-83
2021/10/29 04:21:06;;;;;;;26.88;14.38;;;8.90;99.90;;;;;;5001435;28;20167;-85
2021/10/29 04:23:32;;;;;;;23.33;12.82;;;8.90;99.90;;;;;;5002824;28;20250;-84
2021/10/29 04:26:25;;;;;;;;;;;;;;;;;;;;;
2021/10/29 04:29:14;;;;;;;32.97;14.88;;;8.80;99.90;;;;;;5003756;28;20486;-85
2021/10/29 04:31:50;;;;;;;24.95;13.70;;;8.70;99.90;;;;;;4991810;28;20187;-84
2021/10/29 04:34:26;;;;;;;31.05;16.05;;;8.80;99.90;;;;;;4987046;28;20265;-83
2021/10/29 04:37:01;;;;;;;29.88;14.50;;;8.80;99.90;;;;;;4986831;28;20204;-84
2021/10/29 04:39:47;;;;;;;23.83;13.25;;;8.80;99.90;;;;;;4990866;28;20280;-84
2021/10/29 04:42:13;;;;;;;26.27;12.55;;;8.70;99.90;;;;;;5011261;28;20186;-82
2021/10/29 04:44:49;;;;;;;;;;;;;;;;;;;;;
2021/10/29 04:47:56;;;;;;;;;;;;;;;;;;;;;
2021/10/29 04:50:42;;;;;;;26.98;14.38;;;8.70;99.90;;;;;;5013340;28;20194;-85
2021/10/29 04:53:54;;;;;;;22.90;14.05;;;8.60;99.90;;;;;;5009416;28;20178;-85
2021/10/29 04:56:22;;;;;;;28.65;14.95;;;8.70;99.90;;;;;;4982289;28;20534;-84
2021/10/29 04:59:00;;;;;;;;;;;;;;;;;;;;;
2021/10/29 05:04:53;;;;;;;26.58;13.82;;;8.60;99.90;;;;;;4996250;28;20229;-84
2021/10/29 05:07:24;;;;;;;30.40;16.15;;;8.60;99.90;;;;;;5008396;28;20169;-84
2021/10/29 05:10:10;;;;;;;28.10;13.73;;;8.60;99.90;;;;;;4993251;28;20185;-84
2021/10/29 05:12:59;;;;;;;26.90;14.38;;;8.70;99.90;;;;;;5007614;28;20206;-86
2021/10/29 05:15:44;;;;;;;22.55;14.40;;;8.70;99.90;;;;;;5004253;28;20208;-86
2021/10/29 05:18:36;;;;;;;29.38;16.40;;;8.70;99.90;;;;;;5005975;28;20241;-85
2021/10/29 05:21:08;;;;;;;27.27;15.02;;;8.70;99.90;;;;;;5005416;28;20681;-87
2021/10/29 05:23:54;;;;;;;27.92;12.63;;;8.70;99.90;;;;;;4991261;28;20170;-85
2021/10/29 05:26:20;;;;;;;24.02;12.95;;;8.70;99.90;;;;;;5015825;28;20177;-84
2021/10/29 05:29:09;;;;;;;31.33;12.50;;;8.70;99.90;;;;;;5010879;28;20193;-86
2021/10/29 05:31:36;;;;;;;24.80;13.05;;;8.70;99.90;;;;;;5009381;28;20424;-85
2021/10/29 05:34:02;;;;;;;28.20;14.27;;;8.60;99.90;;;;;;5007522;28;20194;-84
2021/10/29 05:36:28;;;;;;;31.87;14.67;;;8.60;99.90;;;;;;5006491;28;20612;-80
2021/10/29 05:38:53;;;;;;;34.83;15.77;;;8.60;99.90;;;;;;5010175;28;20193;-83
2021/10/29 05:41:19;;;;;;;23.60;12.50;;;8.60;99.90;;;;;;5029439;28;20190;-84
2021/10/29 05:43:44;;;;;;;21.47;12.73;;;8.50;99.90;;;;;;5012084;28;20194;-81
2021/10/29 05:46:10;;;;;;;26.60;13.10;;;8.50;99.90;;;;;;5028451;28;20184;-84
2021/10/29 05:48:38;;;;;;;25.00;14.23;;;8.50;99.90;;;;;;5028382;28;20201;-82
2021/10/29 05:51:09;;;;;;;23.25;13.68;;;8.60;99.90;;;;;;4994636;28;20182;-83
2021/10/29 05:56:15;;;;;;;33.53;15.65;;;8.50;99.90;;;;;;5012310;28;20257;-83
2021/10/29 05:58:40;;;;;;;25.45;12.85;;;8.50;99.90;;;;;;5011949;28;20665;-83
2021/10/29 06:01:06;;;;;;;27.83;14.67;;;8.50;99.90;;;;;;5026589;28;20589;-83
2021/10/29 06:03:32;;;;;;;32.27;14.30;;;8.50;99.90;;;;;;5009448;28;20182;-84
2021/10/29 06:05:58;;;;;;;21.43;12.00;;;8.50;99.90;;;;;;5020511;28;20178;-83
2021/10/29 06:08:25;;;;;;;22.85;13.57;;;8.40;99.90;;;;;;5002241;28;20182;-83
2021/10/29 06:10:51;;;;;;;25.30;15.15;;;8.40;99.90;;;;;;5001955;28;20756;-84
2021/10/29 06:13:17;;;;;;;24.87;13.23;;;8.40;99.90;;;;;;4985396;28;20206;-84
2021/10/29 06:15:45;;;;;;;28.43;14.30;;;8.40;99.90;;;;;;5018609;28;20474;-83
2021/10/29 06:18:12;;;;;;;30.00;14.13;;;8.40;99.90;;;;;;4982948;28;20758;-84
2021/10/29 06:20:39;;;;;;;32.42;15.38;;;8.40;99.90;;;;;;5017879;28;20174;-83
2021/10/29 06:23:07;;;;;;;30.63;15.90;;;8.40;99.90;;;;;;5001143;28;20197;-84
2021/10/29 06:25:41;;;;;;;31.50;15.70;;;8.40;99.90;;;;;;4986425;28;20205;-84
2021/10/29 06:30:39;;;;;;;24.25;13.45;;;8.40;99.90;;;;;;5002154;28;20229;-84
2021/10/29 06:33:05;;;;;;;29.40;15.70;;;8.40;99.90;;;;;;5018457;28;20209;-84
2021/10/29 06:35:31;;;;;;;28.75;16.00;;;8.50;99.90;;;;;;5005052;28;20202;-84
2021/10/29 06:38:00;;;;;;;27.40;14.47;;;8.40;99.90;;;;;;5002686;28;20182;-84
2021/10/29 06:40:27;;;;;;;24.20;14.25;;;8.30;99.90;;;;;;5004345;28;20409;-85
2021/10/29 06:43:00;;;;;;;30.20;16.45;;;8.20;99.90;;;;;;5004511;28;20724;-84
2021/10/29 06:45:56;;;;;;;26.58;15.48;;;8.30;99.90;;;;;;5004023;28;20711;-85
2021/10/29 06:48:38;;;;;;;32.67;16.02;;;8.30;99.90;;;;;;5010254;28;20166;-83
2021/10/29 06:59:32;;;;;;;32.38;15.80;;;8.40;99.90;;;;;;5022330;28;20215;-85
2021/10/29 07:02:36;;;;;;;29.60;14.93;;;8.50;99.90;;;;;;5002831;28;20232;-84
2021/10/29 07:40:21;;;;;;;24.83;14.55;;;9.50;99.90;;;;;;5011508;28;20189;-83
2021/10/29 07:45:22;;;;;;;30.80;16.90;;;9.40;99.90;;;;;;5003277;28;20190;-82
2021/10/29 07:47:48;;;;;;;27.90;15.25;;;9.30;99.90;;;;;;4999550;28;20175;-83
2021/10/29 07:50:15;;;;;;;27.85;15.80;;;9.30;99.90;;;;;;4983917;28;20261;-84
2021/10/29 07:52:43;;;;;;;29.70;15.30;;;9.30;99.90;;;;;;4983591;28;20642;-84
2021/10/29 07:55:10;;;;;;;25.05;14.90;;;9.30;99.90;;;;;;4982700;28;20539;-83
2021/10/29 07:57:36;;;;;;;25.02;13.90;;;9.30;99.90;;;;;;4986882;28;20381;-83
2021/10/29 08:00:04;;;;;;;21.37;12.83;;;9.30;99.90;;;;;;5019853;28;20702;-85
2021/10/29 08:02:33;;;;;;;17.92;11.75;;;9.40;99.90;;;;;;5020337;28;20202;-82
2021/10/29 08:04:59;;;;;;;24.08;12.77;;;9.40;99.90;;;;;;5021808;28;20190;-82
2021/10/29 08:07:26;;;;;;;25.53;11.80;;;9.50;99.90;;;;;;5023076;28;20243;-85
2021/10/29 08:09:52;;;;;;;18.30;12.73;;;9.50;99.90;;;;;;5003897;28;20180;-84
2021/10/29 08:12:19;;;;;;;26.13;13.00;;;9.50;99.90;;;;;;4987069;28;20217;-84
2021/10/29 08:14:46;;;;;;;25.70;12.90;;;9.60;99.90;;;;;;4971410;28;20198;-85
2021/10/29 08:17:16;;;;;;;27.85;14.77;;;9.50;99.90;;;;;;5002625;28;20174;-84
2021/10/29 08:19:42;;;;;;;23.45;12.57;;;9.60;99.90;;;;;;5001071;28;20231;-84
2021/10/29 08:22:08;;;;;;;18.10;11.53;;;9.70;99.90;;;;;;4999349;28;20301;-84
2021/10/29 08:24:38;;;;;;;26.33;13.53;;;9.70;99.90;;;;;;4981122;28;20429;-84
2021/10/29 08:27:04;;;;;;;19.23;12.20;;;9.70;99.90;;;;;;5000390;28;20174;-84
2021/10/29 08:29:30;;;;;;;22.92;13.70;;;9.80;99.90;;;;;;5001019;28;20192;-84
2021/10/29 08:31:56;;;;;;;22.40;13.23;;;9.80;99.90;;;;;;4987118;28;20264;-83
2021/10/29 08:34:26;;;;;;;19.10;12.03;;;9.80;99.90;;;;;;5019234;28;20206;-82
2021/10/29 08:36:57;;;;;;;24.77;14.35;;;9.80;99.90;;;;;;4986138;28;20429;-84
2021/10/29 08:39:24;;;;;;;29.25;14.85;;;9.80;99.90;;;;;;5018538;28;20185;-86
2021/10/29 08:41:53;;;;;;;30.58;15.65;;;9.80;99.90;;;;;;4997768;28;20951;-83
2021/10/29 08:44:21;;;;;;;25.55;14.90;;;9.90;99.90;;;;;;5014984;28;20185;-86
2021/10/29 08:46:47;;;;;;;26.50;14.73;;;10.00;99.90;;;;;;4999704;28;20174;-85
2021/10/29 08:49:15;;;;;;;28.58;14.70;;;10.00;99.90;;;;;;4997792;28;20182;-84
2021/10/29 08:51:40;;;;;;;21.42;12.77;;;10.00;99.90;;;;;;5015262;28;20617;-84
2021/10/29 08:54:07;;;;;;;25.17;12.60;;;10.10;99.90;;;;;;5014557;28;20190;-84
2021/10/29 08:56:33;;;;;;;24.65;13.30;;;10.10;99.90;;;;;;5014781;28;20451;-83
2021/10/29 08:59:27;;;;;;;23.92;12.55;;;10.20;99.90;;;;;;5005956;28;20472;-84
2021/10/29 09:02:32;;;;;;;23.75;13.15;;;10.20;99.90;;;;;;5020149;28;20210;-84
2021/10/29 09:05:15;;;;;;;22.23;14.23;;;10.20;99.90;;;;;;5019417;28;20261;-82
2021/10/29 09:32:40;;;;;;;27.25;13.82;;;10.80;99.90;;;;;;5023204;28;20176;-84
2021/10/29 09:35:16;;;;;;;19.35;11.30;;;10.90;99.90;;;;;;5022072;28;20198;-84
2021/10/29 09:38:00;;;;;;;21.65;13.05;;;10.90;99.90;;;;;;5019162;28;20177;-84
2021/10/29 09:40:30;;;;;;;17.73;11.32;;;11.00;99.90;;;;;;4999639;28;20178;-85
2021/10/29 09:43:02;;;;;;;20.65;12.55;;;11.00;99.90;;;;;;4998922;28;20618;-84
2021/10/29 09:45:28;;;;;;;29.20;13.07;;;11.10;99.90;;;;;;4997644;28;20255;-84
2021/10/29 09:48:21;;;;;;;21.88;12.45;;;11.10;99.90;;;;;;4996583;28;20175;-84
2021/10/29 09:50:58;;;;;;;23.58;13.30;;;11.20;99.90;;;;;;5014023;28;20661;-84
2021/10/29 09:53:46;;;;;;;23.25;12.35;;;11.30;99.90;;;;;;4996504;28;20690;-85
2021/10/29 09:58:53;;;;;;;23.45;11.55;;;11.30;99.90;;;;;;5016337;28;20648;-86
2021/10/29 10:01:24;;;;;;;22.67;12.07;;;11.40;99.90;;;;;;5016437;28;20182;-86
2021/10/29 10:03:51;;;;;;;25.02;12.55;;;11.40;99.90;;;;;;5001211;28;20190;-85
2021/10/29 10:06:25;;;;;;;21.23;11.70;;;11.50;99.90;;;;;;5018296;28;20223;-85
2021/10/29 10:09:00;;;;;;;18.75;12.05;;;11.50;99.90;;;;;;5004055;28;20649;-83
2021/10/29 10:11:29;;;;;;;18.75;11.00;;;11.60;99.90;;;;;;5026108;28;20192;-86
2021/10/29 10:13:57;;;;;;;20.33;11.52;;;11.60;99.90;;;;;;5029497;28;20498;-85
2021/10/29 10:16:28;;;;;;;18.80;11.52;;;11.70;99.90;;;;;;5025766;28;20174;-84
2021/10/29 10:18:55;;;;;;;18.88;11.73;;;11.70;99.90;;;;;;5030342;28;20167;-82
2021/10/29 10:21:24;;;;;;;21.55;12.07;;;11.90;99.90;;;;;;5031671;28;20230;-83
2021/10/29 10:23:53;;;;;;;20.02;12.05;;;11.90;99.90;;;;;;4993610;28;20443;-82
2021/10/29 10:46:06;;;;;;;19.90;10.82;;;12.30;99.90;;;;;;5006156;28;20185;-81
2021/10/29 10:51:42;;;;;;;23.27;12.00;;;12.40;99.90;;;;;;5017893;28;20185;-83
2021/10/29 11:10:22;;;;;;;25.17;12.52;;;12.70;99.90;;;;;;5021694;28;20182;-82
2021/10/29 11:12:48;;;;;;;18.95;12.63;;;12.80;99.90;;;;;;5020246;28;20189;-84
2021/10/29 11:15:18;;;;;;;23.20;11.40;;;12.90;99.90;;;;;;5002392;28;20196;-83
2021/10/29 11:17:49;;;;;;;21.42;11.57;;;12.90;99.90;;;;;;5002557;28;20189;-83
2021/10/29 11:20:37;;;;;;;20.60;12.55;;;13.00;99.90;;;;;;5010606;28;20649;-84
2021/10/29 11:23:07;;;;;;;18.40;11.07;;;13.00;99.90;;;;;;4997616;28;20197;-82
2021/10/29 11:26:03;;;;;;;23.08;12.23;;;13.00;99.90;;;;;;5019577;28;20252;-86
2021/10/29 11:28:43;;;;;;;17.73;10.65;;;13.00;99.90;;;;;;4999825;28;20193;-84
2021/10/29 11:31:39;;;;;;;15.50;10.23;;;13.10;99.90;;;;;;5005846;28;20234;-84
2021/10/29 11:34:12;;;;;;;16.65;10.40;;;13.10;99.90;;;;;;4999851;28;20205;-83
2021/10/29 11:36:40;;;;;;;24.27;13.85;;;13.10;99.90;;;;;;5020444;28;20193;-86
2021/10/29 11:39:09;;;;;;;26.17;12.75;;;13.20;99.90;;;;;;5019760;28;20182;-85
2021/10/29 11:41:40;;;;;;;19.90;12.35;;;13.30;99.90;;;;;;5002063;28;20205;-85
2021/10/29 11:44:13;;;;;;;22.58;13.43;;;13.30;99.90;;;;;;5018084;28;20224;-83
2021/10/29 11:46:42;;;;;;;22.13;13.00;;;13.30;99.90;;;;;;4982688;28;20268;-84
2021/10/29 11:49:13;;;;;;;23.48;14.85;;;13.20;99.90;;;;;;4999055;28;20170;-85
2021/10/29 11:51:41;;;;;;;21.67;13.85;;;13.30;99.90;;;;;;5001189;28;20188;-84
2021/10/29 11:54:23;;;;;;;22.50;12.65;;;13.40;99.90;;;;;;5001292;28;20224;-85
2021/10/29 12:07:24;;;;;;;18.88;12.35;;;13.60;99.90;;;;;;5026683;28;20185;-84
2021/10/29 12:10:03;;;;;;;20.87;13.10;;;13.50;99.90;;;;;;4994587;28;20190;-83
2021/10/29 12:12:30;;;;;;;23.40;12.65;;;13.50;99.90;;;;;;5009153;28;20442;-83
2021/10/29 12:15:07;;;;;;;17.85;12.27;;;13.50;99.90;;;;;;5010277;28;20197;-84
2021/10/29 12:17:40;;;;;;;27.10;13.27;;;13.60;99.90;;;;;;4990773;28;20201;-84
2021/10/29 12:20:09;;;;;;;18.55;12.27;;;13.60;99.90;;;;;;5009218;28;20428;-83
2021/10/29 12:22:40;;;;;;;25.10;12.00;;;13.70;99.90;;;;;;5002647;28;20222;-84
2021/10/29 12:25:23;;;;;;;19.90;12.20;;;13.70;99.90;;;;;;4974284;28;20202;-85
2021/10/29 12:28:00;;;;;;;22.17;13.05;;;13.70;99.90;;;;;;5007464;28;20174;-85
2021/10/29 12:30:43;;;;;;;18.58;10.95;;;13.70;99.90;;;;;;5009512;28;20175;-85
2021/10/29 12:38:55;;;;;;;26.20;13.90;;;13.70;99.90;;;;;;4994650;28;20199;-83
2021/10/29 12:53:46;;;;;;;20.10;12.82;;;13.80;99.90;;;;;;5017483;28;20657;-83
2021/10/29 13:01:34;;;;;;;18.88;12.05;;;13.80;99.90;;;;;;5023004;28;20209;-83
2021/10/29 13:04:00;;;;;;;18.27;11.80;;;13.80;99.90;;;;;;4990208;28;20202;-83
2021/10/29 13:06:37;;;;;;;20.47;13.03;;;13.90;99.90;;;;;;5005219;28;20197;-84
2021/10/29 13:09:18;;;;;;;19.48;12.02;;;13.90;99.90;;;;;;5005324;28;20181;-85
2021/10/29 13:11:59;;;;;;;16.90;11.23;;;13.90;99.90;;;;;;5022304;28;20211;-84
2021/10/29 13:16:57;;;;;;;17.20;10.45;;;13.80;99.90;;;;;;5006151;28;20182;-84
2021/10/29 13:19:53;;;;;;;18.30;13.15;;;13.80;99.90;;;;;;4989859;28;20185;-85
2021/10/29 13:28:11;;;;;;;19.50;12.93;;;13.70;99.90;;;;;;4998284;28;20190;-84
2021/10/29 13:36:22;;;;;;;20.77;13.15;;;13.90;99.90;;;;;;5022064;28;20182;-84
2021/10/29 14:03:13;;;;;;;17.17;11.27;;;13.70;99.90;;;;;;5028865;28;20244;-85
2021/10/29 14:16:56;;;;;;;19.27;10.45;;;13.80;99.90;;;;;;5014651;28;20211;-84
2021/10/29 14:30:05;;;;;;;16.58;11.05;;;13.70;99.90;;;;;;5024145;28;20258;-84
2021/10/29 14:34:58;;;;;;;25.97;12.83;;;13.60;99.90;;;;;;5030115;28;20527;-84
2021/10/29 14:40:38;;;;;;;17.08;13.38;;;13.60;99.90;;;;;;5030718;28;20170;-83
2021/10/29 14:42:47;;;;;;;21.05;14.20;;;13.60;99.90;;;;;;5023980;28;20260;-84
2021/10/29 14:50:43;;;;;;;20.15;13.18;;;13.50;99.90;;;;;;5012880;28;20270;-84
2021/10/29 14:53:38;;;;;;;21.58;14.30;;;13.50;99.90;;;;;;5027540;28;20197;-84
2021/10/29 15:17:54;;;;;;;19.92;13.73;;;13.20;99.90;;;;;;5020187;28;20177;-84
2021/10/29 15:26:23;;;;;;;22.23;12.90;;;13.00;99.90;;;;;;5018770;28;20220;-84
2021/10/29 15:29:12;;;;;;;21.48;13.32;;;13.00;99.90;;;;;;4994891;28;20596;-84
2021/10/29 15:45:23;;;;;;;23.05;14.30;;;12.70;99.90;;;;;;5020338;28;20200;-85
2021/10/29 15:48:01;;;;;;;21.35;13.57;;;12.70;99.90;;;;;;5020770;28;20166;-85
2021/10/29 15:50:33;;;;;;;24.38;13.40;;;12.70;99.90;;;;;;5020275;28;20174;-83
2021/10/29 15:52:58;;;;;;;22.02;14.30;;;12.60;99.90;;;;;;5019769;28;20170;-83
2021/10/29 15:56:31;;;;;;;23.33;13.17;;;12.60;99.90;;;;;;5019304;28;20675;-84
2021/10/29 15:58:46;;;;;;;21.58;13.27;;;12.60;99.90;;;;;;5010209;28;20190;-83
2021/10/29 16:01:21;;;;;;;21.60;11.25;;;12.60;99.90;;;;;;4988648;28;20182;-82
2021/10/29 16:17:13;;;;;;;22.65;14.45;;;12.50;99.90;;;;;;5019682;28;20181;-83
2021/10/29 16:19:43;;;;;;;21.98;12.02;;;12.50;99.90;;;;;;4985767;28;20204;-83
2021/10/29 16:22:10;;;;;;;19.75;13.02;;;12.50;99.90;;;;;;5001711;28;20285;-83
2021/10/29 16:24:40;;;;;;;27.75;15.43;;;12.40;99.90;;;;;;5017952;28;20186;-84
2021/10/29 16:27:06;;;;;;;41.90;18.73;;;12.30;99.90;;;;;;5018563;28;20173;-83
2021/10/29 16:29:34;;;;;;;29.03;16.90;;;12.30;99.90;;;;;;4984463;28;20170;-85
2021/10/29 16:32:10;;;;;;;25.00;15.40;;;12.30;99.90;;;;;;5018931;28;20190;-83
2021/10/29 16:34:36;;;;;;;32.75;16.58;;;12.30;99.90;;;;;;4982345;28;20233;-83
2021/10/29 16:37:02;;;;;;;29.53;16.27;;;12.30;99.90;;;;;;4994072;28;20237;-82
2021/10/29 16:39:27;;;;;;;26.33;15.97;;;12.30;99.90;;;;;;5017946;28;20209;-83
2021/10/29 16:41:53;;;;;;;22.57;14.80;;;12.20;99.90;;;;;;4980890;28;20462;-83
2021/10/29 16:44:21;;;;;;;29.80;15.43;;;12.20;99.90;;;;;;4982196;28;20199;-84
2021/10/29 16:46:47;;;;;;;18.73;13.75;;;12.20;99.90;;;;;;4999062;28;20701;-84
2021/10/29 16:49:12;;;;;;;26.90;15.60;;;12.20;99.90;;;;;;4984611;28;20206;-85
2021/10/29 16:51:38;;;;;;;21.83;13.30;;;12.20;99.90;;;;;;5000024;28;20213;-83
2021/10/29 16:54:04;;;;;;;22.80;14.20;;;12.10;99.90;;;;;;5001715;28;20193;-83
2021/10/29 16:56:29;;;;;;;25.67;16.00;;;12.10;99.90;;;;;;5016259;28;20197;-83
2021/10/29 16:58:55;;;;;;;24.97;15.43;;;12.10;99.90;;;;;;4999929;28;20182;-85
2021/10/29 17:01:21;;;;;;;24.02;15.15;;;12.10;99.90;;;;;;5017985;28;20170;-84
2021/10/29 17:03:47;;;;;;;25.73;14.40;;;12.10;99.90;;;;;;5000036;28;20267;-83
2021/10/29 17:06:12;;;;;;;24.20;14.10;;;12.10;99.90;;;;;;5016911;28;20174;-84
2021/10/29 17:08:38;;;;;;;24.50;15.90;;;12.00;99.90;;;;;;5000097;28;20248;-83
2021/10/29 17:11:03;;;;;;;25.60;15.00;;;12.00;99.90;;;;;;4999067;28;20252;-83
2021/10/29 17:13:29;;;;;;;27.83;16.07;;;11.90;99.90;;;;;;4999054;28;20178;-84
2021/10/29 17:15:54;;;;;;;21.77;14.90;;;11.90;99.90;;;;;;5000966;28;20192;-85
2021/10/29 17:18:20;;;;;;;23.63;14.67;;;11.90;99.90;;;;;;5020612;28;20181;-84
2021/10/29 17:20:46;;;;;;;27.10;15.20;;;11.90;99.90;;;;;;5004216;28;20178;-85
2021/10/29 17:23:11;;;;;;;24.30;15.00;;;11.80;99.90;;;;;;5004155;28;20205;-84
2021/10/29 17:25:39;;;;;;;21.57;13.87;;;11.80;99.90;;;;;;5021512;28;20198;-84
2021/10/29 17:28:05;;;;;;;25.60;14.40;;;11.90;99.90;;;;;;5004021;28;20201;-84
2021/10/29 17:30:31;;;;;;;22.70;13.37;;;11.80;99.90;;;;;;5021484;28;20561;-84
2021/10/29 17:32:58;;;;;;;25.33;15.53;;;11.80;99.90;;;;;;5003584;28;20268;-83
2021/10/29 17:35:24;;;;;;;24.10;15.48;;;11.80;99.90;;;;;;5020650;28;20194;-83
2021/10/29 17:37:49;;;;;;;21.93;14.27;;;11.70;99.90;;;;;;5021473;28;20180;-83
2021/10/29 17:40:15;;;;;;;34.37;15.70;;;11.70;99.90;;;;;;5020841;28;20229;-85
2021/10/29 17:42:41;;;;;;;28.27;15.83;;;11.70;99.90;;;;;;5021638;28;20209;-84
2021/10/29 17:45:09;;;;;;;26.60;15.23;;;11.70;99.90;;;;;;4987548;28;20445;-85